createdAt,value
2017-11-23T00:01:05.707Z,9.30
2017-11-23T00:03:39.316Z,9.30
2017-11-23T00:06:12.775Z,9.20
2017-11-23T00:08:47.327Z,9.20
2017-11-23T00:11:20.831Z,9.20
2017-11-23T00:13:54.593Z,9.20
2017-11-23T00:16:28.191Z,9.00
2017-11-23T00:19:01.844Z,9.00
2017-11-23T00:21:35.452Z,8.90
2017-11-23T00:24:08.931Z,8.90
2017-11-23T00:26:42.436Z,8.90
2017-11-23T00:29:16.030Z,9.00
2017-11-23T00:31:49.590Z,9.00
2017-11-23T00:34:23.231Z,9.00
2017-11-23T00:36:56.840Z,8.90
2017-11-23T00:39:30.437Z,9.00
2017-11-23T00:42:04.135Z,9.00
2017-11-23T00:44:37.735Z,9.00
2017-11-23T00:47:11.306Z,8.90
2017-11-23T00:49:45.503Z,8.90
2017-11-23T00:52:19.256Z,9.00
2017-11-23T00:54:52.720Z,9.00
2017-11-23T00:57:26.467Z,9.00
2017-11-23T00:59:59.955Z,9.10
2017-11-23T01:02:33.463Z,9.10
2017-11-23T01:05:07.069Z,9.00
2017-11-23T01:07:40.863Z,9.10
2017-11-23T01:10:14.419Z,9.00
2017-11-23T01:12:48.062Z,9.10
2017-11-23T01:15:21.672Z,9.00
2017-11-23T01:17:55.375Z,9.00
2017-11-23T01:20:28.967Z,9.00
2017-11-23T01:23:02.689Z,9.00
2017-11-23T01:25:36.867Z,8.90
2017-11-23T01:28:10.487Z,8.90
2017-11-23T01:30:44.198Z,9.00
2017-11-23T01:33:18.098Z,9.00
2017-11-23T01:35:51.699Z,9.00
2017-11-23T01:38:25.303Z,8.90
2017-11-23T01:40:59.011Z,8.80
2017-11-23T01:43:32.678Z,8.80
2017-11-23T01:46:06.309Z,8.80
2017-11-23T01:48:39.814Z,8.80
2017-11-23T01:51:13.406Z,8.80
2017-11-23T01:53:47.062Z,8.90
2017-11-23T01:56:20.860Z,8.80
2017-11-23T01:58:54.519Z,8.70
2017-11-23T02:01:29.038Z,8.70
2017-11-23T02:04:02.499Z,8.80
2017-11-23T02:06:36.238Z,8.80
2017-11-23T02:09:09.807Z,8.70
2017-11-23T02:11:43.448Z,8.70
2017-11-23T02:14:17.926Z,8.80
2017-11-23T02:16:51.635Z,8.80
2017-11-23T02:19:25.147Z,8.80
2017-11-23T02:21:58.866Z,8.90
2017-11-23T02:24:32.426Z,8.80
2017-11-23T02:27:06.127Z,8.80
2017-11-23T02:29:39.889Z,8.80
2017-11-23T02:32:13.536Z,8.90
2017-11-23T02:34:47.046Z,8.90
2017-11-23T02:37:20.614Z,8.90
2017-11-23T02:39:54.279Z,8.90
2017-11-23T02:42:27.883Z,8.90
2017-11-23T02:45:01.584Z,8.90
2017-11-23T02:47:35.971Z,9.00
2017-11-23T02:50:09.573Z,9.00
2017-11-23T02:52:43.159Z,9.00
2017-11-23T02:55:16.916Z,9.00
2017-11-23T02:57:50.520Z,9.00
2017-11-23T03:00:24.051Z,9.00
2017-11-23T03:02:57.824Z,9.00
2017-11-23T03:05:31.992Z,8.90
2017-11-23T03:08:05.508Z,9.00
2017-11-23T03:10:39.143Z,9.00
2017-11-23T03:13:12.948Z,9.00
2017-11-23T03:15:46.861Z,9.00
2017-11-23T03:18:20.519Z,9.00
2017-11-23T03:20:54.236Z,9.00
2017-11-23T03:23:28.676Z,8.90
2017-11-23T03:26:02.118Z,8.90
2017-11-23T03:28:35.874Z,8.90
2017-11-23T03:31:09.481Z,9.00
2017-11-23T03:33:43.891Z,9.00
2017-11-23T03:36:17.584Z,9.00
2017-11-23T03:38:51.095Z,9.00
2017-11-23T03:41:24.703Z,9.00
2017-11-23T03:43:58.294Z,8.90
2017-11-23T03:46:31.848Z,9.00
2017-11-23T03:49:06.378Z,8.90
2017-11-23T03:51:39.978Z,8.90
2017-11-23T03:54:14.402Z,8.90
2017-11-23T03:56:48.739Z,8.90
2017-11-23T03:59:23.031Z,8.90
2017-11-23T04:01:56.638Z,8.90
2017-11-23T04:04:30.178Z,8.90
2017-11-23T04:07:03.647Z,8.90
2017-11-23T04:09:37.986Z,8.80
2017-11-23T04:12:11.694Z,8.80
2017-11-23T04:14:45.295Z,8.90
2017-11-23T04:17:18.895Z,8.90
2017-11-23T04:19:52.411Z,9.00
2017-11-23T04:22:25.904Z,9.00
2017-11-23T04:24:59.813Z,9.00
2017-11-23T04:27:34.338Z,9.00
2017-11-23T04:30:07.983Z,9.00
2017-11-23T04:32:41.727Z,9.10
2017-11-23T04:35:15.295Z,9.10
2017-11-23T04:37:48.942Z,9.20
2017-11-23T04:40:22.531Z,9.20
2017-11-23T04:42:56.100Z,9.30
2017-11-23T04:45:29.745Z,9.30
2017-11-23T04:48:03.338Z,9.30
2017-11-23T04:50:36.815Z,9.30
2017-11-23T04:53:10.387Z,9.30
2017-11-23T04:55:44.954Z,9.30
2017-11-23T04:58:18.576Z,9.30
2017-11-23T05:00:52.164Z,9.30
2017-11-23T05:03:25.827Z,9.30
2017-11-23T05:05:59.783Z,9.30
2017-11-23T05:08:33.488Z,9.30
2017-11-23T05:11:07.163Z,9.40
2017-11-23T05:13:40.990Z,9.40
2017-11-23T05:16:14.588Z,9.40
2017-11-23T05:18:48.193Z,9.40
2017-11-23T05:21:21.725Z,9.40
2017-11-23T05:23:56.620Z,9.40
2017-11-23T05:26:30.267Z,9.40
2017-11-23T05:29:03.859Z,9.50
2017-11-23T05:31:37.515Z,9.50
2017-11-23T05:34:11.014Z,9.40
2017-11-23T05:36:44.574Z,9.50
2017-11-23T05:39:18.170Z,9.50
2017-11-23T05:41:52.125Z,9.50
2017-11-23T05:44:25.745Z,9.40
2017-11-23T05:46:59.418Z,9.50
2017-11-23T05:49:33.083Z,9.50
2017-11-23T05:52:06.735Z,9.50
2017-11-23T05:54:40.334Z,9.50
2017-11-23T05:57:14.106Z,9.60
2017-11-23T05:59:47.748Z,9.60
2017-11-23T06:02:21.219Z,9.60
2017-11-23T06:04:54.848Z,9.50
2017-11-23T06:07:28.452Z,9.60
2017-11-23T06:10:02.755Z,9.60
2017-11-23T06:12:36.775Z,9.60
2017-11-23T06:15:10.470Z,9.60
2017-11-23T06:17:44.034Z,9.60
2017-11-23T06:20:17.629Z,9.60
2017-11-23T06:22:52.159Z,9.70
2017-11-23T06:25:25.794Z,9.70
2017-11-23T06:27:59.384Z,9.60
2017-11-23T06:30:32.891Z,9.60
2017-11-23T06:33:07.295Z,9.60
2017-11-23T06:35:40.863Z,9.60
2017-11-23T06:38:14.519Z,9.50
2017-11-23T06:40:47.952Z,9.50
2017-11-23T06:43:21.612Z,9.40
2017-11-23T06:45:55.382Z,9.50
2017-11-23T06:48:28.981Z,9.50
2017-11-23T06:51:02.522Z,9.50
2017-11-23T06:53:35.992Z,9.50
2017-11-23T06:56:10.287Z,9.50
2017-11-23T06:58:43.939Z,9.50
2017-11-23T07:01:17.854Z,9.50
2017-11-23T07:03:52.267Z,9.50
2017-11-23T07:06:25.764Z,9.50
2017-11-23T07:08:59.463Z,9.50
2017-11-23T07:11:33.125Z,9.60
2017-11-23T07:14:06.620Z,9.50
2017-11-23T07:16:40.085Z,9.50
2017-11-23T07:19:13.667Z,9.60
2017-11-23T07:21:48.707Z,9.60
2017-11-23T07:24:22.204Z,9.60
2017-11-23T07:26:55.799Z,9.60
2017-11-23T07:29:29.502Z,9.60
2017-11-23T07:32:03.102Z,9.60
2017-11-23T07:34:36.707Z,9.60
2017-11-23T07:37:10.408Z,9.60
2017-11-23T07:39:44.117Z,9.50
2017-11-23T07:42:18.436Z,9.60
2017-11-23T07:44:52.131Z,9.60
2017-11-23T07:47:26.551Z,9.60
2017-11-23T07:50:00.110Z,9.60
2017-11-23T07:52:34.584Z,9.70
2017-11-23T07:55:08.051Z,9.70
2017-11-23T07:57:41.588Z,9.80
2017-11-23T08:00:15.320Z,9.80
2017-11-23T08:02:48.844Z,9.80
2017-11-23T08:05:22.327Z,9.80
2017-11-23T08:07:55.987Z,9.80
2017-11-23T08:10:29.779Z,9.90
2017-11-23T08:13:03.388Z,9.90
2017-11-23T08:15:36.983Z,9.80
2017-11-23T08:18:11.487Z,9.90
2017-11-23T08:20:46.243Z,9.90
2017-11-23T08:23:19.840Z,9.90
2017-11-23T08:25:53.431Z,9.90
2017-11-23T08:28:27.044Z,10.00
2017-11-23T08:31:00.621Z,10.00
2017-11-23T08:33:34.244Z,9.90
2017-11-23T08:36:07.834Z,10.00
2017-11-23T08:38:41.448Z,10.00
2017-11-23T08:41:14.927Z,10.00
2017-11-23T08:43:48.503Z,10.00
2017-11-23T08:46:22.338Z,10.10
2017-11-23T08:48:55.884Z,10.10
2017-11-23T08:51:30.236Z,10.10
2017-11-23T08:54:03.869Z,10.10
2017-11-23T08:56:37.563Z,10.10
2017-11-23T08:59:11.171Z,10.10
2017-11-23T09:01:46.811Z,10.20
2017-11-23T09:04:20.515Z,10.10
2017-11-23T09:06:54.104Z,10.20
2017-11-23T09:09:27.833Z,10.20
2017-11-23T09:12:03.263Z,10.20
2017-11-23T09:14:37.600Z,10.20
2017-11-23T09:17:11.032Z,10.20
2017-11-23T09:19:44.570Z,10.20
2017-11-23T09:22:18.178Z,10.30
2017-11-23T09:24:51.788Z,10.40
2017-11-23T09:27:25.445Z,10.40
2017-11-23T09:29:59.040Z,10.50
2017-11-23T09:32:32.899Z,10.50
2017-11-23T09:35:07.183Z,10.60
2017-11-23T09:37:40.919Z,10.60
2017-11-23T09:40:14.724Z,10.60
2017-11-23T09:42:48.315Z,10.70
2017-11-23T09:45:21.927Z,10.70
2017-11-23T09:47:55.527Z,10.80
2017-11-23T09:50:29.107Z,10.80
2017-11-23T09:53:03.030Z,10.80
2017-11-23T09:55:36.637Z,10.90
2017-11-23T09:58:10.140Z,10.90
2017-11-23T10:00:43.850Z,10.90
2017-11-23T10:03:18.868Z,10.90
2017-11-23T10:05:52.371Z,10.80
2017-11-23T10:08:25.962Z,11.00
2017-11-23T10:10:59.532Z,11.00
2017-11-23T10:13:33.136Z,11.10
2017-11-23T10:16:06.776Z,11.10
2017-11-23T10:18:40.348Z,11.00
2017-11-23T10:21:14.084Z,11.00
2017-11-23T10:23:47.680Z,11.00
2017-11-23T10:26:21.187Z,10.90
2017-11-23T10:28:54.975Z,10.90
2017-11-23T10:31:28.995Z,10.90
2017-11-23T10:34:03.406Z,11.00
2017-11-23T10:36:36.912Z,11.00
2017-11-23T10:39:10.616Z,11.00
2017-11-23T10:41:44.895Z,11.20
2017-11-23T10:44:18.704Z,11.20
2017-11-23T10:46:52.442Z,11.30
2017-11-23T10:49:26.012Z,11.40
2017-11-23T10:52:00.052Z,11.40
2017-11-23T10:54:33.757Z,11.40
2017-11-23T10:57:07.329Z,11.40
2017-11-23T10:59:40.928Z,11.40
2017-11-23T11:02:15.071Z,11.40
2017-11-23T11:04:49.487Z,11.50
2017-11-23T11:07:24.114Z,11.50
2017-11-23T11:09:58.543Z,11.50
2017-11-23T11:12:32.214Z,11.60
2017-11-23T11:15:06.537Z,11.60
2017-11-23T11:17:40.095Z,11.60
2017-11-23T11:20:13.755Z,11.60
2017-11-23T11:22:48.080Z,11.60
2017-11-23T11:25:21.666Z,11.60
2017-11-23T11:27:55.159Z,11.60
2017-11-23T11:30:28.888Z,11.60
2017-11-23T11:33:03.291Z,11.50
2017-11-23T11:35:38.239Z,11.60
2017-11-23T11:38:11.927Z,11.50
2017-11-23T11:40:45.531Z,11.50
2017-11-23T11:43:19.959Z,11.50
2017-11-23T11:45:53.547Z,11.50
2017-11-23T11:48:27.118Z,11.50
2017-11-23T11:51:00.702Z,11.50
2017-11-23T11:53:34.337Z,11.50
2017-11-23T11:56:07.963Z,11.50
2017-11-23T11:58:41.665Z,11.50
2017-11-23T12:01:15.468Z,11.60
2017-11-23T12:03:49.148Z,11.50
2017-11-23T12:06:22.771Z,11.50
2017-11-23T12:08:56.965Z,11.50
2017-11-23T12:11:30.796Z,11.60
2017-11-23T12:14:16.377Z,11.60
2017-11-23T12:20:07.413Z,11.60
2017-11-23T12:23:05.481Z,11.50
2017-11-23T12:25:51.155Z,11.50
2017-11-23T12:28:36.744Z,11.50
2017-11-23T12:31:10.343Z,11.50
2017-11-23T12:33:43.798Z,11.50
2017-11-23T12:36:17.435Z,11.50
2017-11-23T12:38:51.239Z,11.60
2017-11-23T12:41:24.943Z,11.60
2017-11-23T12:43:59.244Z,11.60
2017-11-23T12:46:33.170Z,11.50
2017-11-23T12:49:07.078Z,11.60
2017-11-23T12:51:40.678Z,11.60
2017-11-23T12:54:14.285Z,11.60
2017-11-23T12:56:48.803Z,11.60
2017-11-23T12:59:22.303Z,11.60
2017-11-23T13:01:55.854Z,11.60
2017-11-23T13:04:29.612Z,11.60
2017-11-23T13:07:03.208Z,11.60
2017-11-23T13:09:36.822Z,11.60
2017-11-23T13:12:10.464Z,11.60
2017-11-23T13:14:44.222Z,11.60
2017-11-23T13:17:17.715Z,11.60
2017-11-23T13:19:51.303Z,11.60
2017-11-23T13:22:25.730Z,11.70
2017-11-23T13:25:00.585Z,11.60
2017-11-23T13:27:34.239Z,11.70
2017-11-23T13:30:07.844Z,11.60
2017-11-23T13:32:41.362Z,11.60
2017-11-23T13:35:15.694Z,11.60
2017-11-23T13:37:49.280Z,11.60
2017-11-23T13:40:22.995Z,11.60
2017-11-23T13:42:57.203Z,11.70
2017-11-23T13:45:30.798Z,11.60
2017-11-23T13:48:05.218Z,11.60
2017-11-23T13:50:38.832Z,11.60
2017-11-23T13:53:12.611Z,11.70
2017-11-23T13:55:46.214Z,11.70
2017-11-23T13:58:20.035Z,11.70
2017-11-23T14:00:53.608Z,11.70
2017-11-23T14:03:27.349Z,11.70
2017-11-23T14:06:00.878Z,11.70
2017-11-23T14:08:34.643Z,11.70
2017-11-23T14:11:08.447Z,11.70
2017-11-23T14:13:42.046Z,11.70
2017-11-23T14:16:16.467Z,11.70
2017-11-23T14:18:50.083Z,11.70
2017-11-23T14:21:23.670Z,11.70
2017-11-23T14:23:57.279Z,11.70
2017-11-23T14:26:30.875Z,11.70
2017-11-23T14:29:04.446Z,11.70
2017-11-23T14:31:38.280Z,11.70
2017-11-23T14:34:11.879Z,11.70
2017-11-23T14:36:45.447Z,11.70
2017-11-23T14:39:18.989Z,11.80
2017-11-23T14:41:52.807Z,11.70
2017-11-23T14:44:26.489Z,11.70
2017-11-23T14:47:00.200Z,11.70
2017-11-23T14:49:33.756Z,11.70
2017-11-23T14:52:07.960Z,11.70
2017-11-23T14:54:41.820Z,11.70
2017-11-23T14:57:15.414Z,11.70
2017-11-23T14:59:48.868Z,11.70
2017-11-23T15:02:23.231Z,11.60
2017-11-23T15:04:57.555Z,11.70
2017-11-23T15:07:31.155Z,11.60
2017-11-23T15:10:04.814Z,11.70
2017-11-23T15:12:38.555Z,11.70
2017-11-23T15:15:12.067Z,11.70
2017-11-23T15:17:45.860Z,11.70
2017-11-23T15:20:19.459Z,11.70
2017-11-23T15:22:52.969Z,11.70
2017-11-23T15:25:26.579Z,11.70
2017-11-23T15:28:00.172Z,11.60
2017-11-23T15:30:33.812Z,11.60
2017-11-23T15:33:07.363Z,11.60
2017-11-23T15:35:41.167Z,11.70
2017-11-23T15:38:14.874Z,11.60
2017-11-23T15:40:48.827Z,11.60
2017-11-23T15:43:22.434Z,11.70
2017-11-23T15:45:56.126Z,11.70
2017-11-23T15:48:30.586Z,11.70
2017-11-23T15:51:04.158Z,11.70
2017-11-23T15:53:38.704Z,11.80
2017-11-23T15:56:12.192Z,11.70
2017-11-23T15:58:45.787Z,11.70
2017-11-23T16:01:19.531Z,11.70
2017-11-23T16:03:53.096Z,11.70
2017-11-23T16:06:26.739Z,11.70
2017-11-23T16:09:00.403Z,11.70
2017-11-23T16:11:34.083Z,11.70
2017-11-23T16:14:07.638Z,11.70
2017-11-23T16:16:41.674Z,11.80
2017-11-23T16:19:15.414Z,11.80
2017-11-23T16:21:49.027Z,11.80
2017-11-23T16:24:22.755Z,11.80
2017-11-23T16:26:56.336Z,11.80
2017-11-23T16:29:29.923Z,11.80
2017-11-23T16:32:03.440Z,11.80
2017-11-23T16:34:37.020Z,11.70
2017-11-23T16:37:10.684Z,11.80
2017-11-23T16:39:44.463Z,11.80
2017-11-23T16:42:18.434Z,11.80
2017-11-23T16:45:06.931Z,11.80
2017-11-23T16:47:51.348Z,11.80
2017-11-23T16:50:30.894Z,11.80
2017-11-23T16:53:10.270Z,11.80
2017-11-23T16:55:49.496Z,11.80
2017-11-23T16:58:26.881Z,11.70
2017-11-23T17:01:06.538Z,11.70
2017-11-23T17:03:46.086Z,11.70
2017-11-23T17:06:25.354Z,11.80
2017-11-23T17:09:04.724Z,11.80
2017-11-23T17:11:44.735Z,11.70
2017-11-23T17:17:49.033Z,11.70
2017-11-23T17:20:22.836Z,11.70
2017-11-23T17:22:56.644Z,11.70
2017-11-23T17:25:30.287Z,11.70
2017-11-23T17:28:03.843Z,11.60
2017-11-23T17:30:37.444Z,11.70
2017-11-23T17:33:11.251Z,11.70
2017-11-23T17:35:44.853Z,11.60
2017-11-23T17:38:18.334Z,11.70
2017-11-23T17:40:51.858Z,11.70
2017-11-23T17:43:25.514Z,11.70
2017-11-23T17:45:59.823Z,11.70
2017-11-23T17:48:33.508Z,11.70
2017-11-23T17:51:07.013Z,11.70
2017-11-23T17:53:40.545Z,11.80
2017-11-23T17:56:14.076Z,11.80
2017-11-23T17:58:47.535Z,11.80
2017-11-23T18:01:21.066Z,11.80
2017-11-23T18:03:54.599Z,11.80
2017-11-23T18:06:28.120Z,11.80
2017-11-23T18:09:01.584Z,11.90
2017-11-23T18:11:35.180Z,11.90
2017-11-23T18:14:08.634Z,11.90
2017-11-23T18:16:42.852Z,12.00
2017-11-23T18:19:17.123Z,11.90
2017-11-23T18:21:50.563Z,11.90
2017-11-23T18:24:24.076Z,11.90
2017-11-23T18:26:57.607Z,11.90
2017-11-23T18:29:31.872Z,11.90
2017-11-23T18:32:05.409Z,11.90
2017-11-23T18:34:39.670Z,11.90
2017-11-23T18:37:13.174Z,11.90
2017-11-23T18:39:46.823Z,11.90
2017-11-23T18:42:21.112Z,11.90
2017-11-23T18:44:55.314Z,11.90
2017-11-23T18:47:29.736Z,11.90
2017-11-23T18:50:03.964Z,11.90
2017-11-23T18:52:38.180Z,11.90
2017-11-23T18:55:11.696Z,11.90
2017-11-23T18:57:45.140Z,12.00
2017-11-23T19:00:19.490Z,12.10
2017-11-23T19:02:52.943Z,12.00
2017-11-23T19:05:26.456Z,12.00
2017-11-23T19:07:59.983Z,12.00
2017-11-23T19:10:34.299Z,12.00
2017-11-23T19:13:08.650Z,12.10
2017-11-23T19:15:42.153Z,12.00
2017-11-23T19:18:15.710Z,12.10
2017-11-23T19:20:49.228Z,12.10
2017-11-23T19:23:23.642Z,12.10
2017-11-23T19:25:57.843Z,12.00
2017-11-23T19:28:31.379Z,12.00
2017-11-23T19:31:04.840Z,12.10
2017-11-23T19:33:38.381Z,12.10
2017-11-23T19:36:11.955Z,12.10
2017-11-23T19:38:45.473Z,12.10
2017-11-23T19:41:19.004Z,12.10
2017-11-23T19:43:52.448Z,12.10
2017-11-23T19:46:26.843Z,12.10
2017-11-23T19:49:00.432Z,12.10
2017-11-23T19:51:33.938Z,12.10
2017-11-23T19:54:07.387Z,12.10
2017-11-23T19:56:40.833Z,12.10
2017-11-23T19:59:14.363Z,12.10
2017-11-23T20:01:47.808Z,12.00
2017-11-23T20:04:21.323Z,12.10
2017-11-23T20:06:54.963Z,12.10
2017-11-23T20:09:29.384Z,12.10
2017-11-23T20:12:03.593Z,12.10
2017-11-23T20:14:37.103Z,12.10
2017-11-23T20:17:11.386Z,12.10
2017-11-23T20:19:44.915Z,12.10
2017-11-23T20:22:18.475Z,12.10
2017-11-23T20:24:52.706Z,12.10
2017-11-23T20:27:27.040Z,12.10
2017-11-23T20:30:01.245Z,12.10
2017-11-23T20:32:34.774Z,12.10
2017-11-23T20:35:08.212Z,12.10
2017-11-23T20:37:41.664Z,12.10
2017-11-23T20:40:15.191Z,12.10
2017-11-23T20:42:49.450Z,12.10
2017-11-23T20:45:22.988Z,12.10
2017-11-23T20:47:57.271Z,12.10
2017-11-23T20:50:31.471Z,12.10
2017-11-23T20:53:05.018Z,12.10
2017-11-23T20:55:39.317Z,12.10
2017-11-23T20:58:13.531Z,12.10
2017-11-23T21:00:47.734Z,12.00
2017-11-23T21:03:21.268Z,12.00
2017-11-23T21:05:54.904Z,12.00
2017-11-23T21:08:28.447Z,12.10
2017-11-23T21:11:02.040Z,12.00
2017-11-23T21:13:35.552Z,12.00
2017-11-23T21:16:09.072Z,12.00
2017-11-23T21:18:42.669Z,12.00
2017-11-23T21:21:16.944Z,12.00
2017-11-23T21:23:50.470Z,12.10
2017-11-23T21:26:24.132Z,12.00
2017-11-23T21:28:57.575Z,12.10
2017-11-23T21:31:31.117Z,12.10
2017-11-23T21:34:04.803Z,12.10
2017-11-23T21:36:38.494Z,12.10
2017-11-23T21:39:12.333Z,12.10
2017-11-23T21:41:46.803Z,12.10
2017-11-23T21:44:21.402Z,12.10
2017-11-23T21:46:55.113Z,12.10
2017-11-23T21:49:28.800Z,12.10
2017-11-23T21:52:02.516Z,12.00
2017-11-23T21:54:36.221Z,12.00
2017-11-23T21:57:10.008Z,12.00
2017-11-23T21:59:43.705Z,12.10
2017-11-23T22:02:17.652Z,12.00
2017-11-23T22:04:51.232Z,12.10
2017-11-23T22:07:24.802Z,12.10
2017-11-23T22:09:58.459Z,12.10
2017-11-23T22:12:32.002Z,12.00
2017-11-23T22:15:05.520Z,12.00
2017-11-23T22:17:39.023Z,12.00
2017-11-23T22:20:12.553Z,12.00
2017-11-23T22:22:46.103Z,12.00
2017-11-23T22:25:19.757Z,12.00
2017-11-23T22:27:53.261Z,12.00
2017-11-23T22:30:27.916Z,12.00
2017-11-23T22:33:01.622Z,12.00
2017-11-23T22:35:35.597Z,12.00
2017-11-23T22:38:10.000Z,11.90
2017-11-23T22:40:43.480Z,11.90
2017-11-23T22:43:17.098Z,11.90
2017-11-23T22:45:51.303Z,11.90
2017-11-23T22:48:25.135Z,11.90
2017-11-23T22:50:58.631Z,11.90
2017-11-23T22:53:33.011Z,11.80
2017-11-23T22:56:06.766Z,11.80
2017-11-23T22:58:40.326Z,11.80
2017-11-23T23:01:14.744Z,11.80
2017-11-23T23:03:48.275Z,11.80
2017-11-23T23:06:21.771Z,11.80
2017-11-23T23:08:55.283Z,11.80
2017-11-23T23:11:28.983Z,11.80
2017-11-23T23:14:02.585Z,11.80
2017-11-23T23:16:36.175Z,11.80
2017-11-23T23:19:09.899Z,11.80
2017-11-23T23:21:43.680Z,11.80
2017-11-23T23:24:17.396Z,11.80
2017-11-23T23:26:50.896Z,11.80
2017-11-23T23:29:24.701Z,11.80
2017-11-23T23:31:58.262Z,11.80
2017-11-23T23:34:32.264Z,11.80
2017-11-23T23:37:05.915Z,11.80
2017-11-23T23:39:39.503Z,11.80
2017-11-23T23:42:13.005Z,11.90
2017-11-23T23:44:46.563Z,11.80
2017-11-23T23:47:20.216Z,11.90
2017-11-23T23:49:53.905Z,11.80
2017-11-23T23:52:27.710Z,11.80
2017-11-23T23:55:01.210Z,11.80
2017-11-23T23:57:34.732Z,11.80
